createdAt,value
2023-02-25T00:02:22.321Z,77.00
2023-02-25T00:04:50.079Z,76.60
2023-02-25T00:07:17.899Z,76.62
2023-02-25T00:09:46.212Z,76.86
2023-02-25T00:12:16.886Z,75.51
2023-02-25T00:14:45.906Z,75.72
2023-02-25T00:17:16.011Z,75.85
2023-02-25T00:19:43.592Z,76.47
2023-02-25T00:22:11.242Z,77.27
2023-02-25T00:24:38.933Z,77.47
2023-02-25T00:27:06.608Z,78.27
2023-02-25T00:29:34.615Z,78.40
2023-02-25T00:32:03.778Z,78.33
2023-02-25T00:34:31.710Z,78.12
2023-02-25T00:36:59.554Z,78.45
2023-02-25T00:39:41.918Z,78.48
2023-02-25T00:42:18.705Z,77.04
2023-02-25T00:44:47.297Z,76.56
2023-02-25T00:47:19.719Z,76.01
2023-02-25T00:49:48.435Z,75.93
2023-02-25T00:52:17.742Z,76.46
2023-02-25T00:54:45.314Z,75.76
2023-02-25T00:57:12.907Z,75.99
2023-02-25T00:59:40.497Z,75.59
2023-02-25T01:02:08.036Z,75.28
2023-02-25T01:04:36.922Z,74.98
2023-02-25T01:07:04.549Z,74.73
2023-02-25T01:09:32.100Z,74.89
2023-02-25T01:11:59.931Z,74.05
2023-02-25T01:14:29.533Z,74.33
2023-02-25T01:16:57.741Z,74.24
2023-02-25T01:19:27.164Z,74.29
2023-02-25T01:21:58.622Z,74.74
2023-02-25T01:24:28.750Z,74.89
2023-02-25T01:26:59.297Z,75.21
2023-02-25T01:29:29.221Z,75.67
2023-02-25T01:32:01.331Z,76.49
2023-02-25T01:34:38.559Z,76.33
2023-02-25T01:37:08.358Z,76.90
2023-02-25T01:39:36.213Z,77.06
2023-02-25T01:42:12.857Z,77.36
2023-02-25T01:45:25.178Z,77.96
2023-02-25T01:47:57.945Z,77.68
2023-02-25T01:50:32.390Z,78.56
2023-02-25T01:53:09.718Z,78.48
2023-02-25T01:55:41.973Z,78.72
2023-02-25T01:58:10.316Z,78.22
2023-02-25T02:00:39.495Z,77.21
2023-02-25T02:03:15.846Z,76.48
2023-02-25T02:06:08.037Z,76.58
2023-02-25T02:08:37.874Z,76.21
2023-02-25T02:11:06.238Z,75.72
2023-02-25T02:13:37.706Z,75.76
2023-02-25T02:16:28.857Z,76.44
2023-02-25T02:19:01.804Z,74.98
2023-02-25T02:21:50.555Z,75.03
2023-02-25T02:24:48.465Z,74.93
2023-02-25T02:27:24.489Z,73.47
2023-02-25T02:30:28.786Z,71.69
2023-02-25T02:33:05.207Z,70.35
2023-02-25T02:35:41.043Z,67.21
2023-02-25T02:38:22.719Z,66.74
2023-02-25T02:41:02.054Z,66.15
2023-02-25T02:43:40.474Z,64.87
2023-02-25T02:46:16.628Z,64.98
2023-02-25T02:48:49.668Z,65.43
2023-02-25T02:51:20.930Z,65.58
2023-02-25T02:53:53.361Z,65.15
2023-02-25T02:56:25.816Z,65.08
2023-02-25T02:58:58.525Z,64.93
2023-02-25T03:01:33.602Z,65.01
2023-02-25T03:04:06.375Z,65.17
2023-02-25T03:06:38.559Z,65.89
2023-02-25T03:09:10.918Z,66.21
2023-02-25T03:11:38.844Z,66.75
2023-02-25T03:14:09.224Z,67.07
2023-02-25T03:16:42.362Z,68.45
2023-02-25T03:19:14.854Z,69.12
2023-02-25T03:21:47.570Z,69.21
2023-02-25T03:24:22.239Z,68.70
2023-02-25T03:26:53.018Z,68.84
2023-02-25T03:29:23.918Z,68.56
2023-02-25T03:31:58.062Z,69.42
2023-02-25T03:34:33.712Z,68.32
2023-02-25T03:37:04.528Z,69.30
2023-02-25T03:39:37.312Z,69.71
2023-02-25T03:42:13.464Z,68.81
2023-02-25T03:44:47.127Z,69.07
2023-02-25T03:47:17.141Z,69.87
2023-02-25T03:49:53.657Z,70.02
2023-02-25T03:52:24.689Z,71.07
2023-02-25T03:54:54.090Z,71.50
2023-02-25T03:57:24.936Z,72.07
2023-02-25T04:00:00.464Z,71.21
2023-02-25T04:02:32.809Z,70.57
2023-02-25T04:05:02.000Z,70.11
2023-02-25T04:07:30.702Z,70.26
2023-02-25T04:09:59.477Z,71.03
2023-02-25T04:12:27.644Z,71.25
2023-02-25T04:14:56.352Z,71.06
2023-02-25T04:17:24.467Z,70.93
2023-02-25T04:19:52.104Z,70.97
2023-02-25T04:22:22.656Z,70.84
2023-02-25T04:24:51.501Z,70.95
2023-02-25T04:27:19.273Z,70.96
2023-02-25T04:29:47.139Z,70.52
2023-02-25T04:32:15.400Z,70.40
2023-02-25T04:34:43.729Z,71.34
2023-02-25T04:37:12.330Z,71.97
2023-02-25T04:39:41.511Z,72.36
2023-02-25T04:42:09.658Z,72.60
2023-02-25T04:44:37.548Z,72.28
2023-02-25T04:47:05.830Z,72.48
2023-02-25T04:49:44.613Z,72.77
2023-02-25T04:52:15.055Z,72.85
2023-02-25T04:54:45.297Z,73.43
2023-02-25T04:57:14.469Z,73.61
2023-02-25T04:59:42.562Z,73.78
2023-02-25T05:02:10.279Z,73.75
2023-02-25T05:04:42.400Z,73.95
2023-02-25T05:07:11.520Z,73.78
2023-02-25T05:09:41.357Z,73.49
2023-02-25T05:12:12.483Z,73.76
2023-02-25T05:14:40.321Z,73.87
2023-02-25T05:17:08.067Z,73.91
2023-02-25T05:19:35.651Z,73.54
2023-02-25T05:22:03.701Z,73.96
2023-02-25T05:24:31.468Z,74.10
2023-02-25T05:27:08.355Z,74.03
2023-02-25T05:29:37.657Z,74.82
2023-02-25T05:32:06.096Z,74.35
2023-02-25T05:34:34.020Z,74.91
2023-02-25T05:37:13.630Z,74.99
2023-02-25T05:39:41.530Z,75.11
2023-02-25T05:42:09.044Z,74.27
2023-02-25T05:44:38.349Z,74.29
2023-02-25T05:47:07.511Z,73.96
2023-02-25T05:49:36.979Z,74.28
2023-02-25T05:52:04.671Z,74.02
2023-02-25T05:54:33.498Z,73.69
2023-02-25T05:57:01.340Z,73.55
2023-02-25T05:59:28.903Z,74.12
2023-02-25T06:01:57.842Z,74.18
2023-02-25T06:04:26.093Z,74.56
2023-02-25T06:06:53.960Z,74.36
2023-02-25T06:09:22.862Z,74.31
2023-02-25T06:11:54.466Z,74.19
2023-02-25T06:14:22.253Z,73.62
2023-02-25T06:16:51.410Z,73.84
2023-02-25T06:19:21.370Z,74.71
2023-02-25T06:21:49.921Z,74.91
2023-02-25T06:24:17.545Z,74.96
2023-02-25T06:26:45.674Z,75.28
2023-02-25T06:29:17.624Z,75.06
2023-02-25T06:31:45.486Z,75.22
2023-02-25T06:34:13.187Z,75.49
2023-02-25T06:36:42.279Z,75.45
2023-02-25T06:39:10.076Z,74.81
2023-02-25T06:41:40.040Z,75.03
2023-02-25T06:44:07.646Z,74.81
2023-02-25T06:46:35.662Z,74.73
2023-02-25T06:49:06.412Z,74.07
2023-02-25T06:51:34.519Z,74.04
2023-02-25T06:54:05.031Z,72.84
2023-02-25T06:56:32.679Z,73.61
2023-02-25T06:59:00.274Z,73.39
2023-02-25T07:01:28.043Z,72.87
2023-02-25T07:03:55.597Z,73.12
2023-02-25T07:06:23.724Z,72.58
2023-02-25T07:08:51.975Z,72.39
2023-02-25T07:11:33.671Z,72.82
2023-02-25T07:14:04.662Z,72.95
2023-02-25T07:16:34.148Z,73.33
2023-02-25T07:21:47.091Z,73.87
2023-02-25T07:24:17.551Z,73.96
2023-02-25T07:26:46.786Z,74.25
2023-02-25T07:29:17.552Z,74.40
2023-02-25T07:31:45.930Z,73.63
2023-02-25T07:34:14.332Z,74.08
2023-02-25T07:36:42.277Z,73.84
2023-02-25T07:39:12.402Z,74.84
2023-02-25T07:41:42.664Z,74.31
2023-02-25T07:44:11.634Z,73.88
2023-02-25T07:46:39.506Z,73.65
2023-02-25T07:49:08.821Z,73.88
2023-02-25T07:51:36.386Z,73.55
2023-02-25T07:54:05.888Z,73.06
2023-02-25T07:56:35.975Z,73.33
2023-02-25T07:59:03.969Z,72.65
2023-02-25T08:01:34.710Z,72.80
2023-02-25T08:04:05.682Z,72.88
2023-02-25T08:06:37.500Z,73.71
2023-02-25T08:09:05.719Z,73.26
2023-02-25T08:11:33.834Z,73.03
2023-02-25T08:14:11.426Z,72.73
2023-02-25T08:16:41.867Z,72.75
2023-02-25T08:19:09.512Z,72.98
2023-02-25T08:21:37.409Z,72.76
2023-02-25T08:24:05.765Z,72.60
2023-02-25T08:26:33.643Z,73.10
2023-02-25T08:29:01.488Z,73.33
2023-02-25T08:31:29.749Z,72.97
2023-02-25T08:33:59.663Z,72.84
2023-02-25T08:36:30.417Z,72.93
2023-02-25T08:38:59.536Z,73.54
2023-02-25T08:41:29.769Z,72.39
2023-02-25T08:44:00.152Z,72.90
2023-02-25T08:46:29.421Z,72.34
2023-02-25T08:48:57.529Z,72.41
2023-02-25T08:51:34.133Z,72.34
2023-02-25T08:54:04.075Z,72.98
2023-02-25T08:56:32.122Z,73.22
2023-02-25T08:58:59.913Z,73.27
2023-02-25T09:01:41.928Z,73.40
2023-02-25T09:04:09.425Z,72.43
2023-02-25T09:06:38.584Z,71.33
2023-02-25T09:09:06.437Z,70.84
2023-02-25T09:11:34.851Z,70.34
2023-02-25T09:14:02.488Z,68.87
2023-02-25T09:16:31.426Z,68.70
2023-02-25T09:18:59.418Z,67.58
2023-02-25T09:21:27.026Z,66.93
2023-02-25T09:23:56.124Z,66.96
2023-02-25T09:26:23.692Z,67.31
2023-02-25T09:28:51.295Z,67.25
2023-02-25T09:31:19.410Z,66.68
2023-02-25T09:33:47.180Z,65.70
2023-02-25T09:36:17.062Z,65.32
2023-02-25T09:38:46.028Z,64.23
2023-02-25T09:41:24.830Z,63.49
2023-02-25T09:44:02.788Z,63.05
2023-02-25T09:46:31.808Z,62.30
2023-02-25T09:49:02.550Z,62.71
2023-02-25T09:51:35.064Z,61.68
2023-02-25T09:54:14.400Z,60.55
2023-02-25T09:56:43.539Z,60.14
2023-02-25T09:59:16.421Z,58.93
2023-02-25T10:01:51.784Z,56.68
2023-02-25T10:04:29.792Z,56.77
2023-02-25T10:07:02.393Z,56.74
2023-02-25T10:09:38.329Z,55.94
2023-02-25T10:12:19.422Z,56.59
2023-02-25T10:15:05.930Z,57.16
2023-02-25T10:17:44.274Z,56.64
2023-02-25T10:20:26.567Z,56.15
2023-02-25T10:23:03.435Z,56.03
2023-02-25T10:25:36.100Z,56.55
2023-02-25T10:28:19.049Z,58.14
2023-02-25T10:30:57.305Z,57.84
2023-02-25T10:33:26.888Z,58.66
2023-02-25T10:35:58.694Z,58.25
2023-02-25T10:38:26.255Z,57.94
2023-02-25T10:40:58.526Z,57.57
2023-02-25T10:43:28.367Z,58.05
2023-02-25T10:46:01.852Z,56.76
2023-02-25T10:48:32.000Z,56.45
2023-02-25T10:51:07.025Z,55.85
2023-02-25T10:53:35.316Z,55.61
2023-02-25T10:56:04.148Z,55.03
2023-02-25T10:58:38.191Z,55.56
2023-02-25T11:01:12.320Z,55.90
2023-02-25T11:03:46.753Z,56.05
2023-02-25T11:06:24.428Z,56.60
2023-02-25T11:08:54.601Z,56.87
2023-02-25T11:11:24.513Z,58.35
2023-02-25T11:14:06.138Z,59.39
2023-02-25T11:16:36.508Z,58.84
2023-02-25T11:19:14.899Z,59.02
2023-02-25T11:21:43.060Z,58.55
2023-02-25T11:24:15.491Z,59.69
2023-02-25T11:26:46.006Z,59.46
2023-02-25T11:29:18.942Z,59.63
2023-02-25T11:31:50.980Z,61.20
2023-02-25T11:34:23.688Z,61.00
2023-02-25T11:36:53.072Z,62.59
2023-02-25T11:39:23.190Z,63.45
2023-02-25T11:41:52.028Z,65.58
2023-02-25T11:44:29.078Z,71.39
2023-02-25T11:47:04.214Z,76.61
2023-02-25T11:49:53.747Z,79.85
2023-02-25T11:52:28.560Z,81.35
2023-02-25T11:55:12.640Z,80.53
2023-02-25T11:57:53.205Z,78.30
2023-02-25T12:00:28.540Z,77.75
2023-02-25T12:03:11.203Z,77.10
2023-02-25T12:05:53.332Z,74.14
2023-02-25T12:08:40.121Z,72.59
2023-02-25T12:11:28.793Z,73.57
2023-02-25T12:14:35.432Z,73.08
2023-02-25T12:17:40.514Z,68.14
2023-02-25T12:20:59.995Z,67.38
2023-02-25T12:23:58.234Z,65.70
2023-02-25T12:26:37.460Z,65.15
2023-02-25T12:29:34.650Z,63.59
2023-02-25T12:32:15.402Z,67.96
2023-02-25T12:35:06.969Z,64.18
2023-02-25T12:37:58.136Z,61.64
2023-02-25T12:40:42.002Z,61.36
2023-02-25T12:43:26.122Z,61.39
2023-02-25T12:46:15.068Z,60.33
2023-02-25T12:49:05.503Z,59.14
2023-02-25T12:52:07.777Z,59.73
2023-02-25T12:54:58.651Z,58.78
2023-02-25T12:57:40.718Z,60.35
2023-02-25T13:00:30.386Z,60.12
2023-02-25T13:03:23.933Z,59.71
2023-02-25T13:06:12.899Z,59.17
2023-02-25T13:09:00.939Z,58.57
2023-02-25T13:12:07.296Z,57.04
2023-02-25T13:14:41.411Z,56.31
2023-02-25T13:17:27.968Z,55.00
2023-02-25T13:20:19.499Z,53.75
2023-02-25T13:23:00.306Z,52.87
2023-02-25T13:25:45.379Z,53.71
2023-02-25T13:28:26.532Z,54.35
2023-02-25T13:31:00.414Z,53.88
2023-02-25T13:33:56.089Z,53.98
2023-02-25T13:36:43.815Z,53.52
2023-02-25T13:39:30.968Z,53.96
2023-02-25T13:42:12.735Z,54.53
2023-02-25T13:45:02.944Z,53.99
2023-02-25T13:47:49.227Z,55.23
2023-02-25T13:50:40.732Z,56.96
2023-02-25T13:53:28.001Z,62.46
2023-02-25T13:56:20.701Z,66.78
2023-02-25T13:59:02.942Z,69.68
2023-02-25T14:01:42.914Z,70.22
2023-02-25T14:04:46.093Z,69.74
2023-02-25T14:07:32.254Z,70.45
2023-02-25T14:10:19.372Z,70.14
2023-02-25T14:13:01.832Z,71.02
2023-02-25T14:15:39.106Z,72.29
2023-02-25T14:18:44.592Z,75.61
2023-02-25T14:21:39.033Z,81.48
2023-02-25T14:24:13.352Z,84.27
2023-02-25T14:27:03.411Z,87.34
2023-02-25T14:29:44.675Z,87.68
2023-02-25T14:32:28.303Z,87.70
2023-02-25T14:35:13.920Z,85.98
2023-02-25T14:37:55.317Z,85.28
2023-02-25T14:40:30.918Z,85.69
2023-02-25T14:43:13.254Z,84.88
2023-02-25T14:45:45.498Z,82.36
2023-02-25T14:48:20.861Z,82.70
2023-02-25T14:50:59.081Z,82.75
2023-02-25T14:53:46.195Z,82.29
2023-02-25T14:56:48.866Z,80.43
2023-02-25T14:59:46.738Z,79.34
2023-02-25T15:02:46.241Z,77.26
2023-02-25T15:05:37.980Z,74.17
2023-02-25T15:08:44.233Z,72.55
2023-02-25T15:11:39.032Z,70.15
2023-02-25T15:14:26.633Z,67.18
2023-02-25T15:17:11.846Z,66.47
2023-02-25T15:19:54.641Z,67.00
2023-02-25T15:22:32.646Z,66.72
2023-02-25T15:25:41.237Z,65.35
2023-02-25T15:28:34.638Z,59.44
2023-02-25T15:31:29.553Z,56.19
2023-02-25T15:34:33.749Z,53.31
2023-02-25T15:37:27.221Z,51.60
2023-02-25T15:39:58.525Z,52.52
2023-02-25T15:42:55.624Z,52.27
2023-02-25T15:45:42.255Z,51.50
2023-02-25T15:48:32.250Z,51.98
2023-02-25T15:51:06.225Z,51.94
2023-02-25T15:53:49.088Z,51.68
2023-02-25T15:56:47.915Z,51.86
2023-02-25T15:59:43.357Z,51.71
2023-02-25T16:02:42.403Z,52.33
2023-02-25T16:05:24.533Z,52.09
2023-02-25T16:08:07.945Z,52.25
2023-02-25T16:10:40.856Z,52.33
2023-02-25T16:13:15.688Z,52.26
2023-02-25T16:15:50.588Z,50.58
2023-02-25T16:18:26.098Z,50.75
2023-02-25T16:20:59.529Z,49.83
2023-02-25T16:23:28.401Z,48.99
2023-02-25T16:26:08.138Z,49.14
2023-02-25T16:28:48.176Z,49.00
2023-02-25T16:31:23.896Z,49.77
2023-02-25T16:33:58.281Z,49.94
2023-02-25T16:36:34.633Z,49.33
2023-02-25T16:39:08.309Z,49.14
2023-02-25T16:41:38.937Z,48.94
2023-02-25T16:44:07.679Z,49.68
2023-02-25T16:46:41.492Z,49.29
2023-02-25T16:49:12.074Z,49.79
2023-02-25T16:51:42.420Z,49.52
2023-02-25T16:54:15.050Z,49.43
2023-02-25T16:57:04.324Z,50.69
2023-02-25T16:59:34.303Z,51.00
2023-02-25T17:02:25.027Z,50.54
2023-02-25T17:04:54.876Z,51.32
2023-02-25T17:07:27.694Z,51.35
2023-02-25T17:09:59.506Z,51.62
2023-02-25T17:12:31.110Z,51.31
2023-02-25T17:15:01.609Z,52.09
2023-02-25T17:17:34.454Z,52.85
2023-02-25T17:20:04.574Z,52.37
2023-02-25T17:22:33.331Z,52.65
2023-02-25T17:25:02.095Z,52.84
2023-02-25T17:27:29.757Z,53.04
2023-02-25T17:29:57.455Z,52.85
2023-02-25T17:32:29.460Z,52.69
2023-02-25T17:35:02.512Z,52.61
2023-02-25T17:37:32.531Z,51.14
2023-02-25T17:40:08.153Z,49.94
2023-02-25T17:42:39.010Z,49.58
2023-02-25T17:45:28.126Z,50.29
2023-02-25T17:47:55.831Z,50.20
2023-02-25T17:50:30.669Z,50.32
2023-02-25T17:52:59.175Z,50.89
2023-02-25T17:55:29.751Z,50.71
2023-02-25T17:58:00.494Z,50.98
2023-02-25T18:00:32.305Z,51.31
2023-02-25T18:03:17.433Z,50.77
2023-02-25T18:05:53.563Z,50.56
2023-02-25T18:08:22.546Z,50.57
2023-02-25T18:10:54.945Z,50.76
2023-02-25T18:13:27.811Z,51.05
2023-02-25T18:16:32.095Z,50.84
2023-02-25T18:19:01.400Z,50.61
2023-02-25T18:21:30.428Z,51.32
2023-02-25T18:23:59.979Z,50.69
2023-02-25T18:26:28.070Z,51.70
2023-02-25T18:28:57.619Z,51.35
2023-02-25T18:31:25.662Z,52.08
2023-02-25T18:33:54.970Z,52.33
2023-02-25T18:36:25.764Z,51.75
2023-02-25T18:38:58.108Z,51.85
2023-02-25T18:41:25.891Z,52.62
2023-02-25T18:43:54.566Z,54.44
2023-02-25T18:46:22.585Z,54.16
2023-02-25T18:48:50.569Z,54.32
2023-02-25T18:51:18.156Z,53.36
2023-02-25T18:53:46.729Z,54.41
2023-02-25T18:56:21.201Z,54.76
2023-02-25T18:58:48.893Z,53.83
2023-02-25T19:01:23.422Z,55.01
2023-02-25T19:03:53.752Z,54.75
2023-02-25T19:06:22.634Z,55.05
2023-02-25T19:08:50.474Z,56.03
2023-02-25T19:11:23.962Z,54.74
2023-02-25T19:13:52.708Z,55.56
2023-02-25T19:16:20.529Z,56.77
2023-02-25T19:18:48.224Z,58.27
2023-02-25T19:21:18.679Z,57.44
2023-02-25T19:23:47.098Z,58.03
2023-02-25T19:26:16.143Z,57.85
2023-02-25T19:28:45.187Z,57.43
2023-02-25T19:31:13.369Z,56.26
2023-02-25T19:33:41.102Z,56.89
2023-02-25T19:36:09.512Z,57.24
2023-02-25T19:38:37.291Z,57.84
2023-02-25T19:41:07.193Z,57.26
2023-02-25T19:43:35.111Z,57.84
2023-02-25T19:46:09.357Z,57.91
2023-02-25T19:48:37.319Z,57.23
2023-02-25T19:51:09.171Z,57.38
2023-02-25T19:53:37.195Z,57.01
2023-02-25T19:56:05.425Z,58.38
2023-02-25T19:58:34.685Z,58.40
2023-02-25T20:01:05.665Z,58.46
2023-02-25T20:03:33.769Z,58.19
2023-02-25T20:06:06.685Z,58.13
2023-02-25T20:08:36.633Z,57.68
2023-02-25T20:11:04.526Z,57.75
2023-02-25T20:13:32.263Z,58.45
2023-02-25T20:16:17.854Z,58.03
2023-02-25T20:18:49.912Z,58.98
2023-02-25T20:21:17.947Z,57.84
2023-02-25T20:23:45.617Z,58.91
2023-02-25T20:26:15.151Z,58.13
2023-02-25T20:28:42.844Z,58.81
2023-02-25T20:31:13.700Z,58.63
2023-02-25T20:33:44.485Z,58.29
2023-02-25T20:36:21.029Z,59.59
2023-02-25T20:39:02.684Z,59.11
2023-02-25T20:41:30.981Z,59.94
2023-02-25T20:43:58.723Z,59.28
2023-02-25T20:46:29.650Z,59.16
2023-02-25T20:48:57.452Z,59.40
2023-02-25T20:51:25.538Z,59.44
2023-02-25T20:53:55.740Z,58.77
2023-02-25T20:56:26.122Z,59.05
2023-02-25T20:58:54.845Z,58.75
2023-02-25T21:01:22.995Z,58.69
2023-02-25T21:03:52.007Z,58.69
2023-02-25T21:06:22.528Z,59.08
2023-02-25T21:08:51.762Z,58.85
2023-02-25T21:11:20.386Z,58.78
2023-02-25T21:13:48.278Z,58.61
2023-02-25T21:16:16.935Z,58.87
2023-02-25T21:18:47.971Z,58.77
2023-02-25T21:21:20.157Z,58.69
2023-02-25T21:23:49.144Z,58.87
2023-02-25T21:26:16.762Z,58.56
2023-02-25T21:28:45.996Z,59.50
2023-02-25T21:31:16.764Z,58.99
2023-02-25T21:33:44.508Z,58.85
2023-02-25T21:36:12.879Z,59.74
2023-02-25T21:38:41.819Z,58.71
2023-02-25T21:41:11.758Z,58.67
2023-02-25T21:43:40.714Z,58.82
2023-02-25T21:46:12.138Z,59.21
2023-02-25T21:48:43.696Z,59.09
2023-02-25T21:51:17.193Z,58.95
2023-02-25T21:53:47.051Z,59.77
2023-02-25T21:56:18.367Z,59.78
2023-02-25T21:58:46.386Z,59.57
2023-02-25T22:01:16.085Z,59.82
2023-02-25T22:03:44.574Z,58.91
2023-02-25T22:06:14.342Z,59.28
2023-02-25T22:08:43.264Z,59.43
2023-02-25T22:11:17.202Z,59.75
2023-02-25T22:13:45.151Z,59.99
2023-02-25T22:16:14.457Z,59.80
2023-02-25T22:18:42.415Z,59.61
2023-02-25T22:21:15.834Z,60.30
2023-02-25T22:23:44.414Z,59.56
2023-02-25T22:26:14.919Z,60.05
2023-02-25T22:28:49.766Z,60.23
2023-02-25T22:31:19.793Z,60.25
2023-02-25T22:33:47.626Z,61.02
2023-02-25T22:39:05.617Z,60.96
2023-02-25T22:41:33.385Z,60.34
2023-02-25T22:44:03.073Z,60.71
2023-02-25T22:46:32.742Z,59.56
2023-02-25T22:49:00.765Z,60.18
2023-02-25T22:51:30.096Z,60.63
2023-02-25T22:53:57.989Z,60.47
2023-02-25T22:56:26.582Z,61.09
2023-02-25T22:58:54.505Z,60.25
2023-02-25T23:01:25.958Z,60.82
2023-02-25T23:03:55.924Z,60.47
2023-02-25T23:06:41.899Z,61.17
2023-02-25T23:09:11.542Z,60.48
2023-02-25T23:11:42.069Z,59.42
2023-02-25T23:14:09.690Z,59.89
2023-02-25T23:16:40.696Z,60.25
2023-02-25T23:19:10.427Z,59.94
2023-02-25T23:21:39.045Z,59.21
2023-02-25T23:24:09.040Z,59.76
2023-02-25T23:26:40.240Z,59.34
2023-02-25T23:29:09.796Z,59.08
2023-02-25T23:31:42.557Z,59.29
2023-02-25T23:34:12.832Z,59.27
2023-02-25T23:36:41.911Z,60.36
2023-02-25T23:39:10.220Z,60.35
2023-02-25T23:41:39.077Z,60.57
2023-02-25T23:44:08.342Z,61.85
2023-02-25T23:46:36.728Z,61.35
2023-02-25T23:49:07.868Z,61.58
2023-02-25T23:51:36.432Z,61.17
2023-02-25T23:54:06.781Z,61.91
2023-02-25T23:56:35.430Z,61.72
2023-02-25T23:59:03.639Z,62.36
